createdAt,value
2018-06-14T00:02:38.068Z,12.60
2018-06-14T00:05:06.239Z,12.70
2018-06-14T00:07:35.295Z,12.70
2018-06-14T00:10:03.602Z,12.80
2018-06-14T00:12:32.183Z,12.70
2018-06-14T00:15:01.086Z,12.70
2018-06-14T00:17:29.665Z,12.70
2018-06-14T00:19:57.970Z,12.80
2018-06-14T00:22:26.911Z,12.80
2018-06-14T00:24:55.132Z,12.80
2018-06-14T00:27:23.302Z,12.90
2018-06-14T00:29:51.551Z,12.90
2018-06-14T00:32:20.119Z,12.90
2018-06-14T00:34:49.194Z,12.80
2018-06-14T00:37:17.840Z,12.80
2018-06-14T00:39:46.389Z,12.70
2018-06-14T00:42:14.582Z,12.70
2018-06-14T00:44:42.804Z,12.60
2018-06-14T00:47:11.071Z,12.60
2018-06-14T00:49:40.082Z,12.60
2018-06-14T00:52:08.603Z,12.50
2018-06-14T00:54:36.819Z,12.50
2018-06-14T00:57:16.932Z,12.50
2018-06-14T00:59:46.218Z,12.50
2018-06-14T01:02:14.417Z,12.50
2018-06-14T01:04:42.678Z,12.50
2018-06-14T01:07:10.944Z,12.50
2018-06-14T01:09:39.050Z,12.50
2018-06-14T01:12:07.364Z,12.50
2018-06-14T01:14:36.339Z,12.50
2018-06-14T01:17:09.006Z,12.50
2018-06-14T01:19:37.650Z,12.50
2018-06-14T01:22:06.107Z,12.50
2018-06-14T01:24:34.630Z,12.60
2018-06-14T01:27:07.624Z,12.60
2018-06-14T01:29:35.987Z,12.70
2018-06-14T01:32:04.308Z,12.70
2018-06-14T01:34:33.528Z,12.70
2018-06-14T01:37:01.732Z,12.70
2018-06-14T01:39:30.743Z,12.70
2018-06-14T01:42:00.364Z,12.70
2018-06-14T01:44:28.541Z,12.70
2018-06-14T01:49:25.005Z,12.80
2018-06-14T01:54:21.314Z,12.70
2018-06-14T01:56:50.996Z,12.80
2018-06-14T01:59:20.001Z,12.70
2018-06-14T02:01:48.432Z,12.70
2018-06-14T02:04:16.989Z,12.70
2018-06-14T02:06:45.357Z,12.60
2018-06-14T02:09:13.838Z,12.60
2018-06-14T02:11:42.194Z,12.50
2018-06-14T02:14:12.178Z,12.40
2018-06-14T02:16:40.534Z,12.30
2018-06-14T02:19:08.770Z,12.30
2018-06-14T02:21:37.763Z,12.20
2018-06-14T02:24:06.293Z,12.10
2018-06-14T02:26:34.430Z,12.00
2018-06-14T02:29:02.718Z,11.90
2018-06-14T02:31:31.193Z,11.90
2018-06-14T02:34:00.024Z,11.80
2018-06-14T02:36:28.825Z,11.80
2018-06-14T02:41:26.292Z,11.70
2018-06-14T02:43:55.095Z,11.60
2018-06-14T02:46:23.209Z,11.60
2018-06-14T02:48:51.389Z,11.60
2018-06-14T02:51:20.726Z,11.50
2018-06-14T02:57:20.395Z,11.50
2018-06-14T02:59:49.142Z,11.60
2018-06-14T03:02:17.527Z,11.70
2018-06-14T03:04:46.260Z,11.60
2018-06-14T03:07:18.851Z,11.60
2018-06-14T03:09:47.354Z,11.60
2018-06-14T03:12:16.074Z,11.50
2018-06-14T03:19:40.241Z,11.50
2018-06-14T03:22:08.621Z,11.50
2018-06-14T03:24:36.806Z,11.40
2018-06-14T03:27:05.144Z,11.40
2018-06-14T03:29:33.355Z,11.40
2018-06-14T03:32:03.212Z,11.40
2018-06-14T03:37:01.570Z,11.40
2018-06-14T03:39:30.134Z,11.40
2018-06-14T03:42:04.617Z,11.40
2018-06-14T03:44:33.487Z,11.40
2018-06-14T03:47:01.830Z,11.40
2018-06-14T03:49:30.312Z,11.30
2018-06-14T03:51:58.605Z,11.30
2018-06-14T03:54:27.783Z,11.30
2018-06-14T03:56:56.192Z,11.40
2018-06-14T03:59:24.418Z,11.50
2018-06-14T04:01:53.242Z,11.40
2018-06-14T04:04:21.513Z,11.50
2018-06-14T04:06:50.026Z,11.50
2018-06-14T04:09:18.672Z,11.50
2018-06-14T04:11:46.967Z,11.50
2018-06-14T04:14:15.770Z,11.60
2018-06-14T04:19:12.509Z,11.70
2018-06-14T04:21:40.738Z,11.70
2018-06-14T04:24:09.277Z,11.80
2018-06-14T04:26:37.518Z,11.90
2018-06-14T04:29:05.824Z,11.90
2018-06-14T04:31:34.025Z,12.00
2018-06-14T04:34:03.437Z,12.10
2018-06-14T04:36:31.794Z,12.10
2018-06-14T04:41:28.867Z,12.40
2018-06-14T04:43:57.406Z,12.50
2018-06-14T04:46:25.758Z,12.70
2018-06-14T04:48:53.994Z,12.80
2018-06-14T04:51:22.225Z,13.00
2018-06-14T04:53:50.447Z,13.30
2018-06-14T04:56:18.688Z,13.50
2018-06-14T04:58:46.947Z,13.80
2018-06-14T05:01:16.156Z,14.00
2018-06-14T05:03:44.245Z,14.10
2018-06-14T05:06:12.397Z,14.10
2018-06-14T05:08:41.112Z,13.90
2018-06-14T05:11:09.529Z,13.80
2018-06-14T05:13:38.296Z,13.70
2018-06-14T05:16:06.467Z,13.80
2018-06-14T05:18:35.084Z,13.70
2018-06-14T05:21:03.461Z,13.90
2018-06-14T05:23:31.670Z,14.00
2018-06-14T05:25:59.960Z,14.30
2018-06-14T05:28:28.209Z,14.40
2018-06-14T05:30:57.076Z,14.50
2018-06-14T05:33:25.308Z,14.40
2018-06-14T05:35:53.704Z,14.30
2018-06-14T05:38:21.991Z,14.30
2018-06-14T05:40:50.216Z,14.30
2018-06-14T05:43:18.378Z,14.30
2018-06-14T05:45:46.750Z,14.80
2018-06-14T05:50:44.530Z,15.70
2018-06-14T05:53:12.958Z,15.80
2018-06-14T05:55:41.365Z,15.90
2018-06-14T05:58:11.178Z,15.80
2018-06-14T06:05:35.466Z,16.00
2018-06-14T06:08:05.384Z,16.10
2018-06-14T06:10:33.965Z,16.30
2018-06-14T06:13:02.505Z,16.20
2018-06-14T06:15:31.332Z,16.20
2018-06-14T06:18:00.820Z,16.50
2018-06-14T06:20:28.978Z,16.70
2018-06-14T06:22:57.588Z,17.00
2018-06-14T06:25:25.899Z,17.30
2018-06-14T06:27:54.184Z,17.30
2018-06-14T06:30:22.326Z,17.50
2018-06-14T06:32:51.235Z,17.80
2018-06-14T06:35:20.404Z,18.10
2018-06-14T06:37:48.659Z,18.20
2018-06-14T06:40:17.094Z,18.20
2018-06-14T06:42:45.323Z,18.00
2018-06-14T06:45:13.708Z,17.80
2018-06-14T06:47:43.473Z,17.70
2018-06-14T06:50:11.661Z,17.90
2018-06-14T06:52:39.888Z,17.80
2018-06-14T06:55:08.213Z,18.00
2018-06-14T06:57:36.636Z,18.30
2018-06-14T07:00:05.657Z,18.70
2018-06-14T07:02:34.548Z,18.90
2018-06-14T07:05:03.453Z,19.50
2018-06-14T07:07:31.645Z,19.70
2018-06-14T07:09:59.882Z,19.80
2018-06-14T07:12:28.309Z,20.30
2018-06-14T07:14:57.497Z,19.80
2018-06-14T07:17:25.952Z,19.80
2018-06-14T07:19:55.318Z,19.00
2018-06-14T07:22:24.551Z,19.40
2018-06-14T07:24:53.446Z,20.20
2018-06-14T07:27:21.670Z,20.60
2018-06-14T07:29:50.112Z,20.50
2018-06-14T07:32:19.403Z,20.20
2018-06-14T07:34:47.525Z,20.40
2018-06-14T07:37:15.937Z,21.10
2018-06-14T07:39:44.306Z,21.30
2018-06-14T07:42:13.143Z,21.80
2018-06-14T07:44:41.413Z,21.60
2018-06-14T07:47:09.648Z,22.10
2018-06-14T07:49:37.946Z,22.90
2018-06-14T07:52:06.166Z,23.00
2018-06-14T07:54:35.568Z,22.80
2018-06-14T07:57:03.780Z,22.50
2018-06-14T07:59:32.423Z,21.50
2018-06-14T08:02:00.627Z,21.50
2018-06-14T08:04:28.941Z,21.40
2018-06-14T08:06:57.635Z,20.30
2018-06-14T08:09:26.047Z,19.60
2018-06-14T08:11:54.234Z,19.60
2018-06-14T08:14:22.562Z,19.50
2018-06-14T08:16:50.774Z,19.90
2018-06-14T08:21:48.325Z,21.40
2018-06-14T08:24:17.212Z,21.70
2018-06-14T08:26:45.415Z,22.50
2018-06-14T08:29:13.734Z,23.10
2018-06-14T08:31:41.981Z,23.30
2018-06-14T08:36:40.419Z,23.50
2018-06-14T08:39:10.200Z,24.30
2018-06-14T08:41:38.444Z,25.20
2018-06-14T08:44:06.686Z,24.90
2018-06-14T08:46:35.518Z,24.80
2018-06-14T08:49:03.930Z,24.50
2018-06-14T08:51:32.363Z,24.00
2018-06-14T08:54:00.552Z,24.50
2018-06-14T08:56:29.381Z,24.00
2018-06-14T08:58:58.356Z,23.10
2018-06-14T09:01:26.489Z,22.30
2018-06-14T09:03:55.598Z,21.80
2018-06-14T09:06:23.833Z,22.30
2018-06-14T09:08:53.350Z,23.60
2018-06-14T09:11:21.591Z,24.60
2018-06-14T09:13:49.898Z,24.90
2018-06-14T09:16:18.911Z,24.20
2018-06-14T09:18:47.746Z,25.20
2018-06-14T09:21:16.384Z,25.30
2018-06-14T09:23:45.190Z,26.10
2018-06-14T09:28:41.501Z,23.80
2018-06-14T09:31:11.022Z,24.80
2018-06-14T09:33:40.742Z,26.10
2018-06-14T09:36:09.527Z,26.10
2018-06-14T09:38:38.105Z,27.20
2018-06-14T09:41:06.441Z,27.10
2018-06-14T09:43:34.873Z,26.30
2018-06-14T09:46:03.462Z,26.60
2018-06-14T09:48:32.702Z,26.40
2018-06-14T09:51:01.479Z,27.00
2018-06-14T09:53:29.809Z,26.10
2018-06-14T09:55:58.324Z,24.70
2018-06-14T09:58:26.597Z,23.30
2018-06-14T10:00:55.504Z,24.10
2018-06-14T10:03:23.734Z,24.90
2018-06-14T10:05:52.065Z,24.50
2018-06-14T10:10:48.417Z,26.40
2018-06-14T10:13:17.339Z,27.40
2018-06-14T10:15:45.680Z,28.00
2018-06-14T10:18:14.342Z,26.20
2018-06-14T10:20:42.946Z,24.10
2018-06-14T10:23:12.750Z,23.90
2018-06-14T10:25:41.095Z,24.20
2018-06-14T10:28:10.222Z,25.50
2018-06-14T10:30:39.035Z,27.40
2018-06-14T10:33:07.324Z,28.70
2018-06-14T10:38:03.415Z,26.30
2018-06-14T10:40:31.680Z,25.70
2018-06-14T10:43:05.397Z,24.00
2018-06-14T10:45:34.857Z,23.20
2018-06-14T10:48:03.479Z,23.00
2018-06-14T10:50:34.192Z,23.50
2018-06-14T10:53:02.387Z,23.00
2018-06-14T10:55:31.559Z,24.20
2018-06-14T10:57:59.876Z,24.80
2018-06-14T11:00:28.918Z,23.90
2018-06-14T11:02:57.159Z,25.20
2018-06-14T11:05:26.545Z,24.90
2018-06-14T11:07:54.857Z,24.60
2018-06-14T11:10:23.054Z,24.10
2018-06-14T11:12:51.898Z,23.60
2018-06-14T11:15:20.541Z,23.50
2018-06-14T11:17:48.919Z,22.80
2018-06-14T11:20:17.136Z,22.60
2018-06-14T11:22:45.640Z,24.00
2018-06-14T11:25:14.376Z,25.10
2018-06-14T11:27:43.157Z,25.80
2018-06-14T11:32:41.161Z,26.00
2018-06-14T11:35:12.116Z,24.50
2018-06-14T11:37:40.714Z,25.40
2018-06-14T11:40:08.953Z,26.50
2018-06-14T11:42:38.130Z,26.00
2018-06-14T11:45:10.654Z,25.60
2018-06-14T11:47:43.280Z,25.40
2018-06-14T11:50:11.558Z,24.80
2018-06-14T11:52:40.288Z,25.70
2018-06-14T11:55:08.757Z,26.20
2018-06-14T11:57:37.712Z,27.30
2018-06-14T12:00:06.387Z,27.40
2018-06-14T12:02:35.444Z,27.30
2018-06-14T12:05:04.492Z,27.40
2018-06-14T12:10:01.953Z,27.00
2018-06-14T12:12:31.056Z,27.40
2018-06-14T12:14:59.419Z,26.30
2018-06-14T12:17:27.930Z,25.90
2018-06-14T12:19:56.426Z,26.90
2018-06-14T12:22:25.349Z,25.40
2018-06-14T12:24:54.531Z,24.40
2018-06-14T12:27:22.705Z,25.00
2018-06-14T12:29:51.894Z,26.10
2018-06-14T12:32:20.385Z,26.40
2018-06-14T12:34:49.270Z,25.20
2018-06-14T12:37:17.477Z,24.30
2018-06-14T12:39:46.873Z,23.20
2018-06-14T12:42:15.875Z,22.90
2018-06-14T12:44:45.708Z,23.00
2018-06-14T12:47:14.564Z,23.70
2018-06-14T12:49:43.431Z,23.60
2018-06-14T12:52:12.005Z,23.00
2018-06-14T12:54:40.951Z,23.50
2018-06-14T12:57:10.148Z,24.40
2018-06-14T12:59:39.609Z,24.60
2018-06-14T13:02:09.894Z,24.30
2018-06-14T13:04:38.906Z,25.10
2018-06-14T13:07:07.680Z,24.90
2018-06-14T13:09:36.663Z,24.90
2018-06-14T13:12:04.854Z,24.30
2018-06-14T13:14:33.913Z,24.20
2018-06-14T13:17:02.708Z,24.60
2018-06-14T13:19:31.506Z,24.80
2018-06-14T13:22:01.159Z,24.40
2018-06-14T13:24:39.898Z,24.10
2018-06-14T13:27:15.808Z,24.60
2018-06-14T13:29:44.262Z,24.80
2018-06-14T14:54:12.833Z,24.80
2018-06-14T14:56:41.214Z,23.70
2018-06-14T14:59:09.498Z,23.20
2018-06-14T15:01:37.695Z,23.30
2018-06-14T15:04:06.966Z,23.20
2018-06-14T15:06:36.161Z,23.20
2018-06-14T15:09:06.094Z,23.10
2018-06-14T15:11:34.413Z,23.10
2018-06-14T15:16:31.096Z,22.90
2018-06-14T15:18:59.349Z,23.50
2018-06-14T15:23:55.673Z,24.00
2018-06-14T15:26:24.098Z,24.00
2018-06-14T15:28:52.648Z,23.40
2018-06-14T15:31:20.833Z,23.30
2018-06-14T15:33:49.130Z,23.30
2018-06-14T15:36:17.458Z,23.20
2018-06-14T15:38:45.619Z,23.50
2018-06-14T15:41:13.946Z,23.50
2018-06-14T15:43:42.142Z,23.40
2018-06-14T15:46:11.291Z,23.40
2018-06-14T15:48:39.949Z,23.20
2018-06-14T15:51:08.129Z,23.30
2018-06-14T15:53:36.846Z,23.20
2018-06-14T15:56:50.513Z,23.00
2018-06-14T16:01:46.677Z,22.70
2018-06-14T16:04:15.624Z,22.70
2018-06-14T16:06:44.448Z,22.50
2018-06-14T16:11:41.454Z,22.50
2018-06-14T16:14:10.953Z,22.50
2018-06-14T16:16:39.269Z,22.30
2018-06-14T16:19:07.566Z,22.10
2018-06-14T16:21:35.892Z,21.70
2018-06-14T16:24:04.459Z,21.70
2018-06-14T16:26:32.777Z,21.60
2018-06-14T16:29:01.454Z,21.50
2018-06-14T16:31:29.890Z,21.30
2018-06-14T16:36:26.465Z,20.90
2018-06-14T16:38:54.868Z,20.70
2018-06-14T16:41:23.261Z,20.70
2018-06-14T16:43:51.691Z,20.50
2018-06-14T16:46:20.103Z,20.10
2018-06-14T16:48:51.346Z,19.60
2018-06-14T16:51:19.573Z,19.00
2018-06-14T16:53:48.239Z,18.60
2018-06-14T16:56:17.091Z,18.10
2018-06-14T16:58:45.265Z,17.70
2018-06-14T17:01:13.726Z,17.40
2018-06-14T17:03:42.011Z,17.10
2018-06-14T17:06:10.404Z,16.90
2018-06-14T17:08:39.544Z,16.70
2018-06-14T17:11:08.218Z,16.60
2018-06-14T17:13:37.023Z,16.40
2018-06-14T17:16:05.607Z,16.40
2018-06-14T17:18:34.499Z,16.40
2018-06-14T17:21:03.799Z,16.30
2018-06-14T17:26:02.076Z,16.10
2018-06-14T17:28:30.969Z,16.10
2018-06-14T17:31:00.285Z,16.10
2018-06-14T17:33:28.434Z,16.00
2018-06-14T17:35:56.702Z,15.90
2018-06-14T17:38:26.125Z,15.90
2018-06-14T17:40:55.211Z,15.90
2018-06-14T17:43:23.497Z,16.00
2018-06-14T17:45:51.714Z,15.90
2018-06-14T17:48:20.359Z,15.80
2018-06-14T17:50:48.564Z,15.80
2018-06-14T17:53:16.853Z,15.90
2018-06-14T17:55:45.165Z,15.90
2018-06-14T17:58:13.419Z,15.80
2018-06-14T18:00:42.889Z,15.80
2018-06-14T18:03:11.258Z,15.80
2018-06-14T18:05:39.447Z,15.90
2018-06-14T18:08:08.484Z,15.90
2018-06-14T18:10:36.722Z,15.90
2018-06-14T18:13:04.886Z,15.90
2018-06-14T18:15:33.778Z,15.80
2018-06-14T18:18:01.955Z,15.80
2018-06-14T18:20:31.157Z,15.80
2018-06-14T18:22:59.345Z,15.80
2018-06-14T18:25:28.772Z,15.80
2018-06-14T18:27:57.033Z,15.80
2018-06-14T18:30:25.773Z,15.80
2018-06-14T18:32:54.056Z,15.80
2018-06-14T18:35:23.076Z,15.80
2018-06-14T18:40:19.214Z,15.70
2018-06-14T18:42:47.656Z,15.70
2018-06-14T18:45:16.027Z,15.60
2018-06-14T18:47:44.263Z,15.60
2018-06-14T18:50:12.738Z,15.60
2018-06-14T18:55:10.792Z,15.60
2018-06-14T18:57:39.164Z,15.60
2018-06-14T19:00:08.301Z,15.70
2018-06-14T19:02:36.839Z,15.70
2018-06-14T19:05:05.421Z,15.70
2018-06-14T19:07:34.539Z,15.60
2018-06-14T19:10:03.360Z,15.50
2018-06-14T19:12:32.244Z,15.60
2018-06-14T19:15:00.636Z,15.60
2018-06-14T19:17:28.874Z,15.60
2018-06-14T19:19:57.267Z,15.50
2018-06-14T19:22:26.331Z,15.60
2018-06-14T19:24:54.856Z,15.50
2018-06-14T19:27:23.034Z,15.50
2018-06-14T19:32:20.067Z,15.50
2018-06-14T19:34:48.314Z,15.50
2018-06-14T19:37:16.818Z,15.50
2018-06-14T19:39:45.077Z,15.50
2018-06-14T19:42:13.504Z,15.50
2018-06-14T19:44:41.862Z,15.50
2018-06-14T19:47:10.682Z,15.40
2018-06-14T19:49:39.037Z,15.40
2018-06-14T19:52:08.240Z,15.40
2018-06-14T19:54:36.444Z,15.30
2018-06-14T19:57:16.282Z,15.20
2018-06-14T19:59:44.507Z,15.20
2018-06-14T20:02:13.459Z,15.30
2018-06-14T20:07:12.555Z,15.30
2018-06-14T20:09:41.345Z,15.30
2018-06-14T20:12:09.961Z,15.30
2018-06-14T20:14:39.865Z,15.30
2018-06-14T20:17:08.826Z,15.20
2018-06-14T20:19:37.968Z,15.30
2018-06-14T20:22:07.348Z,15.30
2018-06-14T20:24:35.841Z,15.30
2018-06-14T20:27:04.930Z,15.20
2018-06-14T20:29:33.130Z,15.30
2018-06-14T20:32:01.321Z,15.20
2018-06-14T20:34:32.619Z,15.20
2018-06-14T20:39:29.034Z,15.20
2018-06-14T20:41:57.301Z,15.20
2018-06-14T20:44:26.095Z,15.20
2018-06-14T20:46:54.849Z,15.20
2018-06-14T20:49:23.084Z,15.20
2018-06-14T20:51:52.002Z,15.20
2018-06-14T20:54:20.700Z,15.20
2018-06-14T20:56:49.133Z,15.20
2018-06-14T20:59:18.954Z,15.30
2018-06-14T21:01:47.504Z,15.30
2018-06-14T21:04:15.806Z,15.20
2018-06-14T21:06:44.813Z,15.20
2018-06-14T21:09:13.094Z,15.30
2018-06-14T21:11:41.457Z,15.30
2018-06-14T21:14:09.811Z,15.40
2018-06-14T21:16:39.206Z,15.30
2018-06-14T21:19:08.007Z,15.30
2018-06-14T21:21:36.401Z,15.30
2018-06-14T21:24:04.868Z,15.30
2018-06-14T21:26:35.033Z,15.40
2018-06-14T21:34:02.852Z,15.40
2018-06-14T21:36:31.441Z,15.40
2018-06-14T21:39:00.506Z,15.40
2018-06-14T21:41:29.658Z,15.40
2018-06-14T21:43:58.555Z,15.50
2018-06-14T21:46:26.887Z,15.50
2018-06-14T21:51:24.061Z,15.50
2018-06-14T21:53:52.290Z,15.50
2018-06-14T21:56:20.700Z,15.50
2018-06-14T21:58:49.083Z,15.50
2018-06-14T22:01:18.008Z,15.40
2018-06-14T22:03:52.789Z,15.40
2018-06-14T22:06:21.519Z,15.40
2018-06-14T22:08:50.493Z,15.50
2018-06-14T22:11:18.622Z,15.50
2018-06-14T22:13:47.005Z,15.50
2018-06-14T22:16:16.090Z,15.50
2018-06-14T22:18:45.800Z,15.50
2018-06-14T22:21:13.893Z,15.50
2018-06-14T22:23:42.138Z,15.50
2018-06-14T22:26:10.969Z,15.50
2018-06-14T22:28:39.412Z,15.50
2018-06-14T22:31:07.651Z,15.50
2018-06-14T22:33:47.254Z,15.50
2018-06-14T22:36:16.171Z,15.60
2018-06-14T22:38:45.044Z,15.60
2018-06-14T22:41:14.328Z,15.50
2018-06-14T22:43:43.270Z,15.50
2018-06-14T22:46:11.756Z,15.50
2018-06-14T22:48:39.868Z,15.50
2018-06-14T22:51:17.427Z,15.60
2018-06-14T22:53:46.209Z,15.60
2018-06-14T22:56:14.981Z,15.50
2018-06-14T22:58:43.535Z,15.60
2018-06-14T23:01:49.919Z,15.50
2018-06-14T23:04:20.398Z,15.50
2018-06-14T23:06:48.862Z,15.50
2018-06-14T23:10:30.221Z,15.50
2018-06-14T23:12:59.051Z,15.50
2018-06-14T23:15:28.396Z,15.40
2018-06-14T23:17:58.671Z,15.40
2018-06-14T23:20:28.374Z,15.40
2018-06-14T23:22:57.286Z,15.40
2018-06-14T23:25:26.437Z,15.40
2018-06-14T23:27:55.040Z,15.40
2018-06-14T23:30:24.287Z,15.50
2018-06-14T23:32:52.671Z,15.50
2018-06-14T23:35:20.887Z,15.40
2018-06-14T23:37:49.122Z,15.40
2018-06-14T23:40:17.306Z,15.50
2018-06-14T23:42:45.678Z,15.40
2018-06-14T23:45:13.967Z,15.50
2018-06-14T23:47:42.796Z,15.50
2018-06-14T23:50:11.765Z,15.40
2018-06-14T23:52:40.189Z,15.40
2018-06-14T23:55:08.501Z,15.50
2018-06-14T23:57:36.681Z,15.50
